sensor_id;sensor_type;location;lat;lon;timestamp;pressure;altitude;pressure_sealevel;temperature;humidity
38780;BME280;29273;49.962;9.768;2023-09-08T00:00:56;100107.69;;;20.00;53.44
38780;BME280;29273;49.962;9.768;2023-09-08T00:03:21;100109.81;;;19.98;53.53
38780;BME280;29273;49.962;9.768;2023-09-08T00:05:47;100104.16;;;19.94;53.31
38780;BME280;29273;49.962;9.768;2023-09-08T00:08:12;100103.03;;;19.90;53.47
38780;BME280;29273;49.962;9.768;2023-09-08T00:10:38;100106.25;;;19.87;53.54
38780;BME280;29273;49.962;9.768;2023-09-08T00:13:03;100102.97;;;19.85;53.65
38780;BME280;29273;49.962;9.768;2023-09-08T00:15:29;100098.69;;;19.84;53.56
38780;BME280;29273;49.962;9.768;2023-09-08T00:17:54;100104.31;;;19.82;53.78
38780;BME280;29273;49.962;9.768;2023-09-08T00:20:22;100100.00;;;19.81;53.89
38780;BME280;29273;49.962;9.768;2023-09-08T00:22:47;100105.63;;;19.80;53.55
38780;BME280;29273;49.962;9.768;2023-09-08T00:25:13;100101.34;;;19.78;53.53
38780;BME280;29273;49.962;9.768;2023-09-08T00:27:38;100105.09;;;19.77;53.69
38780;BME280;29273;49.962;9.768;2023-09-08T00:30:04;100103.44;;;19.76;53.67
38780;BME280;29273;49.962;9.768;2023-09-08T00:32:30;100109.06;;;19.75;53.52
38780;BME280;29273;49.962;9.768;2023-09-08T00:34:56;100110.88;;;19.69;53.67
38780;BME280;29273;49.962;9.768;2023-09-08T00:37:21;100108.72;;;19.66;53.81
38780;BME280;29273;49.962;9.768;2023-09-08T00:39:47;100109.22;;;19.63;53.63
38780;BME280;29273;49.962;9.768;2023-09-08T00:42:12;100115.91;;;19.60;53.93
38780;BME280;29273;49.962;9.768;2023-09-08T00:44:37;100111.31;;;19.56;54.01
38780;BME280;29273;49.962;9.768;2023-09-08T00:47:03;100115.03;;;19.55;54.00
38780;BME280;29273;49.962;9.768;2023-09-08T00:49:29;100118.25;;;19.52;53.87
38780;BME280;29273;49.962;9.768;2023-09-08T00:51:55;100116.63;;;19.51;53.82
38780;BME280;29273;49.962;9.768;2023-09-08T00:54:20;100116.06;;;19.49;53.75
38780;BME280;29273;49.962;9.768;2023-09-08T00:56:46;100110.13;;;19.47;53.92
38780;BME280;29273;49.962;9.768;2023-09-08T00:59:13;100119.50;;;19.44;54.11
38780;BME280;29273;49.962;9.768;2023-09-08T01:01:39;100110.06;;;19.41;54.08
38780;BME280;29273;49.962;9.768;2023-09-08T01:04:06;100113.00;;;19.40;54.39
38780;BME280;29273;49.962;9.768;2023-09-08T01:06:32;100114.34;;;19.37;54.22
38780;BME280;29273;49.962;9.768;2023-09-08T01:08:58;100115.38;;;19.36;54.48
38780;BME280;29273;49.962;9.768;2023-09-08T01:11:25;100117.81;;;19.38;54.46
38780;BME280;29273;49.962;9.768;2023-09-08T01:13:51;100117.28;;;19.36;54.76
38780;BME280;29273;49.962;9.768;2023-09-08T01:16:16;100112.97;;;19.35;54.88
38780;BME280;29273;49.962;9.768;2023-09-08T01:18:43;100107.09;;;19.38;54.28
38780;BME280;29273;49.962;9.768;2023-09-08T01:27:21;100119.16;;;19.35;54.00
38780;BME280;29273;49.962;9.768;2023-09-08T01:29:50;100109.72;;;19.33;54.02
38780;BME280;29273;49.962;9.768;2023-09-08T01:32:16;100111.84;;;19.31;54.05
38780;BME280;29273;49.962;9.768;2023-09-08T01:34:42;100118.78;;;19.27;54.48
38780;BME280;29273;49.962;9.768;2023-09-08T01:37:08;100116.63;;;19.23;54.29
38780;BME280;29273;49.962;9.768;2023-09-08T01:39:33;100117.13;;;19.20;54.39
38780;BME280;29273;49.962;9.768;2023-09-08T01:41:59;100116.81;;;19.17;54.13
38780;BME280;29273;49.962;9.768;2023-09-08T01:44:24;100113.78;;;19.13;54.25
38780;BME280;29273;49.962;9.768;2023-09-08T01:46:50;100110.78;;;19.10;54.21
38780;BME280;29273;49.962;9.768;2023-09-08T01:49:22;100109.94;;;19.04;54.38
38780;BME280;29273;49.962;9.768;2023-09-08T01:51:48;100112.06;;;19.02;54.63
38780;BME280;29273;49.962;9.768;2023-09-08T01:54:13;100117.09;;;18.98;54.59
38780;BME280;29273;49.962;9.768;2023-09-08T01:56:38;100110.38;;;18.96;54.48
38780;BME280;29273;49.962;9.768;2023-09-08T01:59:04;100105.50;;;18.93;54.85
38780;BME280;29273;49.962;9.768;2023-09-08T02:01:30;100102.25;;;18.91;54.66
38780;BME280;29273;49.962;9.768;2023-09-08T02:03:55;100107.31;;;18.87;54.89
38780;BME280;29273;49.962;9.768;2023-09-08T02:06:21;100110.25;;;18.85;54.71
38780;BME280;29273;49.962;9.768;2023-09-08T02:08:46;100113.19;;;18.84;55.00
38780;BME280;29273;49.962;9.768;2023-09-08T02:11:11;100114.22;;;18.83;54.71
38780;BME280;29273;49.962;9.768;2023-09-08T02:13:38;100110.72;;;18.82;54.10
38780;BME280;29273;49.962;9.768;2023-09-08T02:16:04;100109.56;;;18.78;54.61
38780;BME280;29273;49.962;9.768;2023-09-08T02:18:29;100111.69;;;18.76;54.62
38780;BME280;29273;49.962;9.768;2023-09-08T02:20:55;100107.91;;;18.72;54.82
38780;BME280;29273;49.962;9.768;2023-09-08T02:23:20;100116.19;;;18.71;54.87
38780;BME280;29273;49.962;9.768;2023-09-08T02:25:46;100116.44;;;18.69;54.81
38780;BME280;29273;49.962;9.768;2023-09-08T02:28:11;100109.69;;;18.66;54.81
38780;BME280;29273;49.962;9.768;2023-09-08T02:30:37;100114.50;;;18.64;54.69
38780;BME280;29273;49.962;9.768;2023-09-08T02:33:02;100110.19;;;18.63;54.86
38780;BME280;29273;49.962;9.768;2023-09-08T02:35:28;100114.19;;;18.61;54.77
38780;BME280;29273;49.962;9.768;2023-09-08T02:37:56;100110.94;;;18.59;54.91
38780;BME280;29273;49.962;9.768;2023-09-08T02:40:21;100111.19;;;18.57;54.81
38780;BME280;29273;49.962;9.768;2023-09-08T02:42:47;100118.41;;;18.57;54.95
38780;BME280;29273;49.962;9.768;2023-09-08T02:45:12;100108.19;;;18.54;54.71
38780;BME280;29273;49.962;9.768;2023-09-08T02:47:38;100112.97;;;18.52;54.87
38780;BME280;29273;49.962;9.768;2023-09-08T02:50:03;100114.03;;;18.51;54.93
38780;BME280;29273;49.962;9.768;2023-09-08T02:52:31;100108.13;;;18.48;54.85
38780;BME280;29273;49.962;9.768;2023-09-08T02:54:57;100110.47;;;18.45;54.83
38780;BME280;29273;49.962;9.768;2023-09-08T02:57:24;100113.38;;;18.43;54.52
38780;BME280;29273;49.962;9.768;2023-09-08T02:59:50;100116.34;;;18.42;54.58
38780;BME280;29273;49.962;9.768;2023-09-08T03:02:16;100114.94;;;18.39;54.70
38780;BME280;29273;49.962;9.768;2023-09-08T03:04:42;100111.13;;;18.35;55.09
38780;BME280;29273;49.962;9.768;2023-09-08T03:07:08;100108.72;;;18.34;54.92
38780;BME280;29273;49.962;9.768;2023-09-08T03:09:34;100108.13;;;18.31;54.67
38780;BME280;29273;49.962;9.768;2023-09-08T03:12:00;100100.31;;;18.30;54.83
38780;BME280;29273;49.962;9.768;2023-09-08T03:14:25;100105.13;;;18.28;55.02
38780;BME280;29273;49.962;9.768;2023-09-08T03:16:51;100107.81;;;18.28;54.83
38780;BME280;29273;49.962;9.768;2023-09-08T03:19:16;100112.59;;;18.26;54.92
38780;BME280;29273;49.962;9.768;2023-09-08T03:21:43;100112.84;;;18.24;54.81
38780;BME280;29273;49.962;9.768;2023-09-08T03:24:09;100109.59;;;18.22;55.21
38780;BME280;29273;49.962;9.768;2023-09-08T03:26:35;100107.16;;;18.21;55.25
38780;BME280;29273;49.962;9.768;2023-09-08T03:29:00;100104.19;;;18.17;55.16
38780;BME280;29273;49.962;9.768;2023-09-08T03:31:26;100101.72;;;18.16;55.32
38780;BME280;29273;49.962;9.768;2023-09-08T03:33:51;100100.34;;;18.13;55.04
38780;BME280;29273;49.962;9.768;2023-09-08T03:36:17;100110.25;;;18.12;55.19
38780;BME280;29273;49.962;9.768;2023-09-08T03:38:42;100108.06;;;18.09;55.52
38780;BME280;29273;49.962;9.768;2023-09-08T03:41:08;100110.97;;;18.08;55.31
38780;BME280;29273;49.962;9.768;2023-09-08T03:43:34;100105.06;;;18.06;55.43
38780;BME280;29273;49.962;9.768;2023-09-08T03:46:00;100103.44;;;18.05;55.47
38780;BME280;29273;49.962;9.768;2023-09-08T03:48:26;100104.75;;;18.02;55.04
38780;BME280;29273;49.962;9.768;2023-09-08T03:50:51;100104.97;;;18.01;55.39
38780;BME280;29273;49.962;9.768;2023-09-08T03:53:18;100111.38;;;18.00;55.47
38780;BME280;29273;49.962;9.768;2023-09-08T03:55:44;100108.16;;;17.98;55.51
38780;BME280;29273;49.962;9.768;2023-09-08T03:58:10;100107.34;;;17.97;55.46
38780;BME280;29273;49.962;9.768;2023-09-08T04:00:35;100106.75;;;17.95;55.46
38780;BME280;29273;49.962;9.768;2023-09-08T04:03:01;100105.94;;;17.94;55.50
38780;BME280;29273;49.962;9.768;2023-09-08T04:05:26;100111.53;;;17.93;55.42
38780;BME280;29273;49.962;9.768;2023-09-08T04:07:52;100116.09;;;17.92;54.93
38780;BME280;29273;49.962;9.768;2023-09-08T04:10:18;100104.00;;;17.90;55.08
38780;BME280;29273;49.962;9.768;2023-09-08T04:12:43;100107.97;;;17.87;55.50
38780;BME280;29273;49.962;9.768;2023-09-08T04:15:10;100107.16;;;17.87;55.37
38780;BME280;29273;49.962;9.768;2023-09-08T04:17:36;100105.50;;;17.86;55.57
38780;BME280;29273;49.962;9.768;2023-09-08T04:20:06;100106.09;;;17.88;54.23
38780;BME280;29273;49.962;9.768;2023-09-08T04:22:32;100098.19;;;17.81;55.40
38780;BME280;29273;49.962;9.768;2023-09-08T04:24:59;100106.22;;;17.81;55.36
38780;BME280;29273;49.962;9.768;2023-09-08T04:27:25;100095.19;;;17.78;55.25
38780;BME280;29273;49.962;9.768;2023-09-08T04:29:51;100102.44;;;17.77;55.19
38780;BME280;29273;49.962;9.768;2023-09-08T04:32:16;100097.56;;;17.74;55.18
38780;BME280;29273;49.962;9.768;2023-09-08T04:34:42;100104.19;;;17.71;55.29
38780;BME280;29273;49.962;9.768;2023-09-08T04:37:08;100099.91;;;17.70;55.14
38780;BME280;29273;49.962;9.768;2023-09-08T04:39:34;100110.84;;;17.69;55.41
38780;BME280;29273;49.962;9.768;2023-09-08T04:42:00;100109.47;;;17.66;55.12
38780;BME280;29273;49.962;9.768;2023-09-08T04:44:26;100104.34;;;17.65;55.41
38780;BME280;29273;49.962;9.768;2023-09-08T04:46:53;100112.38;;;17.65;55.64
38780;BME280;29273;49.962;9.768;2023-09-08T04:49:19;100108.56;;;17.61;55.54
38780;BME280;29273;49.962;9.768;2023-09-08T04:51:45;100107.72;;;17.60;56.05
38780;BME280;29273;49.962;9.768;2023-09-08T04:54:13;100113.34;;;17.59;55.67
38780;BME280;29273;49.962;9.768;2023-09-08T04:56:39;100110.09;;;17.56;55.93
38780;BME280;29273;49.962;9.768;2023-09-08T04:59:05;100115.44;;;17.56;56.05
38780;BME280;29273;49.962;9.768;2023-09-08T05:01:31;100117.31;;;17.56;55.85
38780;BME280;29273;49.962;9.768;2023-09-08T05:03:59;100120.22;;;17.54;56.24
38780;BME280;29273;49.962;9.768;2023-09-08T05:06:25;100117.56;;;17.54;55.89
38780;BME280;29273;49.962;9.768;2023-09-08T05:08:52;100117.78;;;17.53;56.02
38780;BME280;29273;49.962;9.768;2023-09-08T05:11:17;100126.06;;;17.51;55.71
38780;BME280;29273;49.962;9.768;2023-09-08T05:13:45;100127.94;;;17.51;55.69
38780;BME280;29273;49.962;9.768;2023-09-08T05:16:12;100131.41;;;17.51;55.90
38780;BME280;29273;49.962;9.768;2023-09-08T05:18:41;100135.41;;;17.49;56.05
38780;BME280;29273;49.962;9.768;2023-09-08T05:21:07;100132.72;;;17.49;56.38
38780;BME280;29273;49.962;9.768;2023-09-08T05:23:33;100133.53;;;17.49;56.63
38780;BME280;29273;49.962;9.768;2023-09-08T05:26:00;100136.22;;;17.49;56.51
38780;BME280;29273;49.962;9.768;2023-09-08T05:28:26;100137.84;;;17.50;56.60
38780;BME280;29273;49.962;9.768;2023-09-08T05:30:53;100135.16;;;17.50;56.70
38780;BME280;29273;49.962;9.768;2023-09-08T05:33:19;100137.00;;;17.50;56.90
38780;BME280;29273;49.962;9.768;2023-09-08T05:35:45;100140.25;;;17.52;56.99
38780;BME280;29273;49.962;9.768;2023-09-08T05:38:11;100135.50;;;17.54;57.58
38780;BME280;29273;49.962;9.768;2023-09-08T05:40:36;100151.31;;;17.55;57.49
38780;BME280;29273;49.962;9.768;2023-09-08T05:43:03;100146.53;;;17.57;57.92
38780;BME280;29273;49.962;9.768;2023-09-08T05:45:28;100142.81;;;17.59;57.87
38780;BME280;29273;49.962;9.768;2023-09-08T05:47:56;100145.22;;;17.60;57.86
38780;BME280;29273;49.962;9.768;2023-09-08T05:50:21;100144.19;;;17.61;58.24
38780;BME280;29273;49.962;9.768;2023-09-08T05:52:48;100150.09;;;17.63;58.43
38780;BME280;29273;49.962;9.768;2023-09-08T05:55:13;100151.75;;;17.64;58.50
38780;BME280;29273;49.962;9.768;2023-09-08T05:57:39;100158.47;;;17.67;58.81
38780;BME280;29273;49.962;9.768;2023-09-08T06:00:07;100151.03;;;17.69;58.38
38780;BME280;29273;49.962;9.768;2023-09-08T06:02:38;100161.50;;;17.70;58.67
38780;BME280;29273;49.962;9.768;2023-09-08T06:05:05;100153.81;;;17.74;58.76
38780;BME280;29273;49.962;9.768;2023-09-08T06:07:32;100153.56;;;17.75;58.90
38780;BME280;29273;49.962;9.768;2023-09-08T06:09:58;100153.31;;;17.77;58.95
38780;BME280;29273;49.962;9.768;2023-09-08T06:12:23;100143.16;;;17.79;58.98
38780;BME280;29273;49.962;9.768;2023-09-08T06:14:49;100146.41;;;17.81;59.00
38780;BME280;29273;49.962;9.768;2023-09-08T06:17:15;100145.13;;;17.84;59.28
38780;BME280;29273;49.962;9.768;2023-09-08T06:19:40;100150.25;;;17.85;59.21
38780;BME280;29273;49.962;9.768;2023-09-08T06:22:06;100148.16;;;17.87;59.34
38780;BME280;29273;49.962;9.768;2023-09-08T06:24:31;100154.91;;;17.90;59.44
38780;BME280;29273;49.962;9.768;2023-09-08T06:26:57;100150.13;;;17.92;59.28
38780;BME280;29273;49.962;9.768;2023-09-08T06:29:23;100158.50;;;17.96;59.59
38780;BME280;29273;49.962;9.768;2023-09-08T06:31:49;100152.91;;;17.97;59.65
38780;BME280;29273;49.962;9.768;2023-09-08T06:34:15;100162.06;;;18.01;59.56
38780;BME280;29273;49.962;9.768;2023-09-08T06:36:42;100161.03;;;18.02;59.85
38780;BME280;29273;49.962;9.768;2023-09-08T06:39:08;100158.41;;;18.07;60.11
38780;BME280;29273;49.962;9.768;2023-09-08T06:41:33;100157.09;;;18.10;60.22
38780;BME280;29273;49.962;9.768;2023-09-08T06:44:01;100159.31;;;18.13;60.02
38780;BME280;29273;49.962;9.768;2023-09-08T06:46:28;100165.81;;;18.17;60.24
38780;BME280;29273;49.962;9.768;2023-09-08T06:48:53;100162.06;;;18.18;60.24
38780;BME280;29273;49.962;9.768;2023-09-08T06:51:19;100161.34;;;18.23;60.41
38780;BME280;29273;49.962;9.768;2023-09-08T06:53:53;100166.06;;;18.33;58.48
38780;BME280;29273;49.962;9.768;2023-09-08T06:56:19;100156.63;;;18.30;60.26
38780;BME280;29273;49.962;9.768;2023-09-08T06:58:45;100162.34;;;18.34;60.48
38780;BME280;29273;49.962;9.768;2023-09-08T07:01:11;100164.50;;;18.37;60.64
38780;BME280;29273;49.962;9.768;2023-09-08T07:03:36;100159.25;;;18.42;60.84
38780;BME280;29273;49.962;9.768;2023-09-08T07:06:04;100158.50;;;18.46;60.84
38780;BME280;29273;49.962;9.768;2023-09-08T07:08:30;100155.31;;;18.49;61.09
38780;BME280;29273;49.962;9.768;2023-09-08T07:10:55;100154.59;;;18.54;60.67
38780;BME280;29273;49.962;9.768;2023-09-08T07:13:21;100157.34;;;18.59;60.61
38780;BME280;29273;49.962;9.768;2023-09-08T07:15:47;100152.06;;;18.64;60.47
38780;BME280;29273;49.962;9.768;2023-09-08T07:18:13;100143.28;;;18.69;60.91
38780;BME280;29273;49.962;9.768;2023-09-08T07:20:39;100154.06;;;18.74;61.07
38780;BME280;29273;49.962;9.768;2023-09-08T07:23:06;100146.66;;;18.81;60.35
38780;BME280;29273;49.962;9.768;2023-09-08T07:25:31;100153.44;;;18.84;60.61
38780;BME280;29273;49.962;9.768;2023-09-08T07:27:57;100150.00;;;18.89;60.48
38780;BME280;29273;49.962;9.768;2023-09-08T07:30:23;100153.56;;;18.94;60.60
38780;BME280;29273;49.962;9.768;2023-09-08T07:32:49;100147.44;;;18.99;60.31
38780;BME280;29273;49.962;9.768;2023-09-08T07:35:14;100139.47;;;19.04;60.38
38780;BME280;29273;49.962;9.768;2023-09-08T07:37:43;100147.31;;;19.11;60.29
38780;BME280;29273;49.962;9.768;2023-09-08T07:40:10;100142.56;;;19.18;60.28
38780;BME280;29273;49.962;9.768;2023-09-08T07:42:35;100142.88;;;19.21;60.32
38780;BME280;29273;49.962;9.768;2023-09-08T07:45:01;100144.56;;;19.28;60.48
38780;BME280;29273;49.962;9.768;2023-09-08T07:47:27;100144.63;;;19.33;60.29
38780;BME280;29273;49.962;9.768;2023-09-08T07:50:20;100149.56;;;19.41;59.05
38780;BME280;29273;49.962;9.768;2023-09-08T07:52:47;100151.50;;;19.46;60.18
38780;BME280;29273;49.962;9.768;2023-09-08T07:55:13;100146.97;;;19.51;60.09
38780;BME280;29273;49.962;9.768;2023-09-08T07:57:40;100141.41;;;19.58;59.91
38780;BME280;29273;49.962;9.768;2023-09-08T08:00:07;100141.19;;;19.65;59.58
38780;BME280;29273;49.962;9.768;2023-09-08T08:02:39;100138.31;;;19.71;59.80
38780;BME280;29273;49.962;9.768;2023-09-08T08:05:05;100137.34;;;19.77;59.64
38780;BME280;29273;49.962;9.768;2023-09-08T08:07:31;100135.50;;;19.83;59.47
38780;BME280;29273;49.962;9.768;2023-09-08T08:09:56;100134.47;;;19.89;59.82
38780;BME280;29273;49.962;9.768;2023-09-08T08:12:22;100131.56;;;19.96;59.86
38780;BME280;29273;49.962;9.768;2023-09-08T08:14:47;100131.63;;;20.01;59.40
38780;BME280;29273;49.962;9.768;2023-09-08T08:17:13;100128.47;;;20.09;59.20
38780;BME280;29273;49.962;9.768;2023-09-08T08:19:38;100130.38;;;20.14;59.12
38780;BME280;29273;49.962;9.768;2023-09-08T08:22:04;100134.50;;;20.22;59.11
38780;BME280;29273;49.962;9.768;2023-09-08T08:24:29;100129.94;;;20.27;58.73
38780;BME280;29273;49.962;9.768;2023-09-08T08:26:55;100127.03;;;20.34;58.56
38780;BME280;29273;49.962;9.768;2023-09-08T08:29:20;100122.47;;;20.40;58.85
38780;BME280;29273;49.962;9.768;2023-09-08T08:31:46;100124.94;;;20.46;58.38
38780;BME280;29273;49.962;9.768;2023-09-08T08:34:11;100127.16;;;20.55;58.27
38780;BME280;29273;49.962;9.768;2023-09-08T08:36:37;100119.38;;;20.58;58.32
38780;BME280;29273;49.962;9.768;2023-09-08T08:39:02;100120.00;;;20.65;58.33
38780;BME280;29273;49.962;9.768;2023-09-08T08:41:29;100115.19;;;20.73;57.91
38780;BME280;29273;49.962;9.768;2023-09-08T08:43:55;100123.03;;;20.79;57.99
38780;BME280;29273;49.962;9.768;2023-09-08T08:46:21;100124.66;;;20.85;57.59
38780;BME280;29273;49.962;9.768;2023-09-08T08:48:48;100119.03;;;20.92;57.42
38780;BME280;29273;49.962;9.768;2023-09-08T08:51:15;100115.28;;;20.98;57.37
38780;BME280;29273;49.962;9.768;2023-09-08T08:53:42;100112.06;;;21.01;56.54
38780;BME280;29273;49.962;9.768;2023-09-08T08:56:09;100111.31;;;21.11;56.95
38780;BME280;29273;49.962;9.768;2023-09-08T08:58:37;100109.72;;;21.20;57.20
38780;BME280;29273;49.962;9.768;2023-09-08T09:01:04;100103.81;;;21.23;56.62
38780;BME280;29273;49.962;9.768;2023-09-08T09:03:31;100095.47;;;21.30;56.51
38780;BME280;29273;49.962;9.768;2023-09-08T09:06:00;100092.53;;;21.37;56.04
38780;BME280;29273;49.962;9.768;2023-09-08T09:08:26;100094.13;;;21.43;56.31
38780;BME280;29273;49.962;9.768;2023-09-08T09:10:52;100088.78;;;21.48;55.89
38780;BME280;29273;49.962;9.768;2023-09-08T09:13:17;100079.09;;;21.52;55.34
38780;BME280;29273;49.962;9.768;2023-09-08T09:15:43;100083.16;;;21.60;54.85
38780;BME280;29273;49.962;9.768;2023-09-08T09:18:10;100079.13;;;21.68;55.06
38780;BME280;29273;49.962;9.768;2023-09-08T09:20:35;100082.34;;;21.75;55.13
38780;BME280;29273;49.962;9.768;2023-09-08T09:23:01;100083.97;;;21.81;54.73
38780;BME280;29273;49.962;9.768;2023-09-08T09:25:29;100086.66;;;21.91;54.81
38780;BME280;29273;49.962;9.768;2023-09-08T09:27:57;100086.38;;;21.98;54.47
38780;BME280;29273;49.962;9.768;2023-09-08T09:30:24;100088.28;;;22.03;54.14
38780;BME280;29273;49.962;9.768;2023-09-08T09:33:03;100092.31;;;22.15;54.82
38780;BME280;29273;49.962;9.768;2023-09-08T09:35:46;100085.28;;;22.20;54.73
38780;BME280;29273;49.962;9.768;2023-09-08T09:38:13;100089.34;;;22.22;53.63
38780;BME280;29273;49.962;9.768;2023-09-08T09:40:39;100082.03;;;22.28;53.58
38780;BME280;29273;49.962;9.768;2023-09-08T09:43:05;100084.75;;;22.33;53.21
38780;BME280;29273;49.962;9.768;2023-09-08T09:45:35;100080.97;;;22.44;54.13
38780;BME280;29273;49.962;9.768;2023-09-08T09:48:05;100076.09;;;22.46;53.43
38780;BME280;29273;49.962;9.768;2023-09-08T09:50:33;100073.38;;;22.51;52.44
38780;BME280;29273;49.962;9.768;2023-09-08T09:53:01;100074.97;;;22.58;52.75
38780;BME280;29273;49.962;9.768;2023-09-08T09:55:28;100076.06;;;22.62;52.31
38780;BME280;29273;49.962;9.768;2023-09-08T09:57:58;100074.66;;;22.75;53.35
38780;BME280;29273;49.962;9.768;2023-09-08T10:00:30;100065.75;;;22.74;51.79
38780;BME280;29273;49.962;9.768;2023-09-08T10:02:58;100069.22;;;22.80;51.86
38780;BME280;29273;49.962;9.768;2023-09-08T10:05:26;100063.81;;;22.85;51.78
38780;BME280;29273;49.962;9.768;2023-09-08T10:07:52;100070.00;;;22.90;51.83
38780;BME280;29273;49.962;9.768;2023-09-08T10:10:18;100066.47;;;22.95;51.62
38780;BME280;29273;49.962;9.768;2023-09-08T10:12:46;100061.56;;;23.02;51.61
38780;BME280;29273;49.962;9.768;2023-09-08T10:15:20;100064.75;;;23.15;52.44
38780;BME280;29273;49.962;9.768;2023-09-08T10:17:47;100058.56;;;23.14;50.82
38780;BME280;29273;49.962;9.768;2023-09-08T10:20:15;100055.53;;;23.21;50.65
38780;BME280;29273;49.962;9.768;2023-09-08T10:22:42;100061.16;;;23.30;51.20
38780;BME280;29273;49.962;9.768;2023-09-08T10:25:09;100055.44;;;23.36;50.74
38780;BME280;29273;49.962;9.768;2023-09-08T10:27:38;100060.81;;;23.41;49.77
38780;BME280;29273;49.962;9.768;2023-09-08T10:30:05;100045.09;;;23.49;50.68
38780;BME280;29273;49.962;9.768;2023-09-08T10:32:35;100046.09;;;23.58;50.90
38780;BME280;29273;49.962;9.768;2023-09-08T10:35:05;100046.59;;;23.65;51.38
38780;BME280;29273;49.962;9.768;2023-09-08T10:37:31;100043.88;;;23.65;49.95
38780;BME280;29273;49.962;9.768;2023-09-08T10:42:45;100044.31;;;23.77;49.71
38780;BME280;29273;49.962;9.768;2023-09-08T10:45:17;100032.06;;;23.90;51.03
38780;BME280;29273;49.962;9.768;2023-09-08T10:50:16;100034.38;;;24.02;50.54
38780;BME280;29273;49.962;9.768;2023-09-08T10:52:42;100037.09;;;24.02;49.88
38780;BME280;29273;49.962;9.768;2023-09-08T10:55:08;100030.84;;;24.07;48.55
38780;BME280;29273;49.962;9.768;2023-09-08T10:57:33;100032.66;;;24.11;47.46
38780;BME280;29273;49.962;9.768;2023-09-08T11:00:01;100035.78;;;24.24;49.08
38780;BME280;29273;49.962;9.768;2023-09-08T11:02:49;100032.75;;;24.30;50.38
38780;BME280;29273;49.962;9.768;2023-09-08T11:05:20;100035.72;;;24.29;47.79
38780;BME280;29273;49.962;9.768;2023-09-08T11:07:47;100031.00;;;24.39;48.96
38780;BME280;29273;49.962;9.768;2023-09-08T11:10:14;100029.34;;;24.44;48.95
38780;BME280;29273;49.962;9.768;2023-09-08T11:12:40;100023.88;;;24.49;47.08
38780;BME280;29273;49.962;9.768;2023-09-08T11:15:07;100025.44;;;24.55;47.92
38780;BME280;29273;49.962;9.768;2023-09-08T11:17:37;100032.31;;;24.66;48.68
38780;BME280;29273;49.962;9.768;2023-09-08T11:20:05;100028.31;;;24.64;47.09
38780;BME280;29273;49.962;9.768;2023-09-08T11:22:38;100019.84;;;24.70;47.00
38780;BME280;29273;49.962;9.768;2023-09-08T11:25:07;100023.50;;;24.80;48.01
38780;BME280;29273;49.962;9.768;2023-09-08T11:27:33;100027.81;;;24.81;46.23
38780;BME280;29273;49.962;9.768;2023-09-08T11:29:59;100026.94;;;24.85;44.94
38780;BME280;29273;49.962;9.768;2023-09-08T11:32:25;100021.47;;;24.90;45.55
38780;BME280;29273;49.962;9.768;2023-09-08T11:34:50;100025.19;;;24.94;44.97
38780;BME280;29273;49.962;9.768;2023-09-08T11:37:17;100022.13;;;25.01;45.47
38780;BME280;29273;49.962;9.768;2023-09-08T11:39:44;100020.16;;;25.07;46.14
38780;BME280;29273;49.962;9.768;2023-09-08T11:42:13;100017.88;;;25.14;45.40
38780;BME280;29273;49.962;9.768;2023-09-08T11:44:40;100015.66;;;25.16;45.33
38780;BME280;29273;49.962;9.768;2023-09-08T11:47:10;100011.75;;;25.27;46.63
38780;BME280;29273;49.962;9.768;2023-09-08T11:52:01;100000.00;;;25.32;44.59
38780;BME280;29273;49.962;9.768;2023-09-08T11:54:27;99994.81;;;25.36;44.02
38780;BME280;29273;49.962;9.768;2023-09-08T11:56:54;99998.22;;;25.41;44.14
38780;BME280;29273;49.962;9.768;2023-09-08T11:59:20;99990.84;;;25.47;44.59
38780;BME280;29273;49.962;9.768;2023-09-08T12:01:45;99997.78;;;25.53;44.19
38780;BME280;29273;49.962;9.768;2023-09-08T12:04:20;99994.31;;;25.66;46.66
38780;BME280;29273;49.962;9.768;2023-09-08T12:06:47;99982.63;;;25.66;43.11
38780;BME280;29273;49.962;9.768;2023-09-08T12:09:13;99987.66;;;25.73;43.28
38780;BME280;29273;49.962;9.768;2023-09-08T12:11:39;99986.47;;;25.79;42.88
38780;BME280;29273;49.962;9.768;2023-09-08T12:14:09;99986.88;;;25.86;43.33
38780;BME280;29273;49.962;9.768;2023-09-08T12:16:35;99987.13;;;25.90;42.39
38780;BME280;29273;49.962;9.768;2023-09-08T12:19:00;99983.22;;;25.96;42.74
38780;BME280;29273;49.962;9.768;2023-09-08T12:21:26;99973.09;;;26.01;42.55
38780;BME280;29273;49.962;9.768;2023-09-08T12:23:54;99980.00;;;26.08;42.43
38780;BME280;29273;49.962;9.768;2023-09-08T12:26:20;99979.09;;;26.12;42.96
38780;BME280;29273;49.962;9.768;2023-09-08T12:28:47;99976.00;;;26.19;42.46
38780;BME280;29273;49.962;9.768;2023-09-08T12:31:14;99978.09;;;26.22;41.37
38780;BME280;29273;49.962;9.768;2023-09-08T12:33:42;99973.06;;;26.29;42.36
38780;BME280;29273;49.962;9.768;2023-09-08T12:36:17;99971.25;;;26.38;44.24
38780;BME280;29273;49.962;9.768;2023-09-08T12:38:52;99969.22;;;26.44;43.70
38780;BME280;29273;49.962;9.768;2023-09-08T12:41:18;99972.53;;;26.41;40.99
38780;BME280;29273;49.962;9.768;2023-09-08T12:43:44;99963.19;;;26.47;41.12
38780;BME280;29273;49.962;9.768;2023-09-08T12:46:10;99969.00;;;26.54;40.74
38780;BME280;29273;49.962;9.768;2023-09-08T12:48:35;99961.06;;;26.58;41.05
38780;BME280;29273;49.962;9.768;2023-09-08T12:51:01;99959.88;;;26.64;40.93
38780;BME280;29273;49.962;9.768;2023-09-08T12:53:26;99959.44;;;26.71;40.35
38780;BME280;29273;49.962;9.768;2023-09-08T12:55:52;99957.75;;;26.75;40.21
38780;BME280;29273;49.962;9.768;2023-09-08T12:58:18;99952.97;;;26.81;40.62
38780;BME280;29273;49.962;9.768;2023-09-08T13:00:44;99955.56;;;26.86;41.05